Time;durP1;ratioP1;P1;durP2;ratioP2;P2;SDS_P1;SDS_P2;PMS_P1;PMS_P2;Temp;Humidity;BMP_temperature;BMP_pressure;BME280_temperature;BME280_humidity;BME280_pressure;Samples;Min_cycle;Max_cycle;Signal;HPM_P1;HPM_P2
2022/07/02 00:00:50;;;;;;;5.18;2.30;;;;;;;;;;5002779;28;20232;-63
2022/07/02 00:03:16;;;;;;;5.05;2.50;;;;;;;;;;5002078;28;20699;-63
2022/07/02 00:05:44;;;;;;;4.75;2.45;;;;;;;;;;5003729;28;20224;-63
2022/07/02 00:08:10;;;;;;;5.82;2.50;;;;;;;;;;4996930;28;20332;-63
2022/07/02 00:10:35;;;;;;;4.35;2.30;;;;;;;;;;4996007;28;20211;-64
2022/07/02 00:13:01;;;;;;;5.28;2.38;;;;;;;;;;4997036;28;20215;-63
2022/07/02 00:15:26;;;;;;;5.05;2.53;;;;;;;;;;5038878;28;20214;-63
2022/07/02 00:17:51;;;;;;;5.82;2.40;;;;;;;;;;5041550;28;20227;-64
2022/07/02 00:20:17;;;;;;;4.05;2.42;;;;;;;;;;5023451;28;20296;-64
2022/07/02 00:22:42;;;;;;;4.10;2.47;;;;;;;;;;5028015;28;20224;-63
2022/07/02 00:25:08;;;;;;;4.35;2.55;;;;;;;;;;5023139;28;20222;-64
2022/07/02 00:27:33;;;;;;;5.60;2.72;;;;;;;;;;5041861;28;20215;-64
2022/07/02 00:29:59;;;;;;;7.65;2.90;;;;;;;;;;5018701;28;20203;-64
2022/07/02 00:32:25;;;;;;;4.40;2.50;;;;;;;;;;5032966;28;20226;-64
2022/07/02 00:34:50;;;;;;;7.43;3.15;;;;;;;;;;5014822;28;20290;-64
2022/07/02 00:37:16;;;;;;;6.45;2.60;;;;;;;;;;5017970;28;20218;-64
2022/07/02 00:39:41;;;;;;;4.88;2.80;;;;;;;;;;5040879;28;20300;-64
2022/07/02 00:42:07;;;;;;;5.97;2.67;;;;;;;;;;5020533;28;20694;-64
2022/07/02 00:44:32;;;;;;;6.20;2.60;;;;;;;;;;5022322;28;20216;-64
2022/07/02 00:46:59;;;;;;;6.90;2.75;;;;;;;;;;5009576;28;20220;-64
2022/07/02 00:49:24;;;;;;;5.07;2.60;;;;;;;;;;5026669;28;20210;-64
2022/07/02 00:51:49;;;;;;;6.00;3.00;;;;;;;;;;5014312;28;20220;-64
2022/07/02 00:54:15;;;;;;;5.70;3.00;;;;;;;;;;5033322;28;20234;-64
2022/07/02 00:56:40;;;;;;;4.63;2.83;;;;;;;;;;5020495;28;20381;-64
2022/07/02 00:59:05;;;;;;;6.28;3.03;;;;;;;;;;5013244;28;20227;-64
2022/07/02 01:01:31;;;;;;;5.55;2.60;;;;;;;;;;5019654;28;20813;-64
2022/07/02 01:03:57;;;;;;;4.88;3.03;;;;;;;;;;5021611;28;20220;-64
2022/07/02 01:06:23;;;;;;;5.80;3.05;;;;;;;;;;5039631;28;20231;-64
2022/07/02 01:11:33;;;;;;;7.97;3.00;;;;;;;;;;5021251;28;20222;-64
2022/07/02 01:13:58;;;;;;;5.25;2.88;;;;;;;;;;5029109;28;20212;-64
2022/07/02 01:16:23;;;;;;;7.00;3.10;;;;;;;;;;5014831;28;20307;-64
2022/07/02 01:18:49;;;;;;;6.28;3.17;;;;;;;;;;4993430;28;20607;-64
2022/07/02 01:21:14;;;;;;;7.10;3.15;;;;;;;;;;4994435;28;20222;-64
2022/07/02 01:23:40;;;;;;;6.63;3.08;;;;;;;;;;5019344;28;20758;-64
2022/07/02 01:26:05;;;;;;;5.05;2.97;;;;;;;;;;5020936;28;20805;-63
2022/07/02 01:28:30;;;;;;;7.05;3.33;;;;;;;;;;5020938;28;20719;-63
2022/07/02 01:30:56;;;;;;;7.95;3.55;;;;;;;;;;5009509;28;20263;-63
2022/07/02 01:33:21;;;;;;;6.07;3.30;;;;;;;;;;5000650;28;20300;-64
2022/07/02 01:35:46;;;;;;;6.40;3.47;;;;;;;;;;5003438;28;20580;-63
2022/07/02 01:38:12;;;;;;;6.53;3.13;;;;;;;;;;5002799;28;20343;-64
2022/07/02 01:40:37;;;;;;;7.20;3.40;;;;;;;;;;5005202;28;20969;-64
2022/07/02 01:43:02;;;;;;;6.07;2.90;;;;;;;;;;5016775;28;20258;-64
2022/07/02 01:45:28;;;;;;;8.02;3.20;;;;;;;;;;5001612;28;20239;-64
2022/07/02 01:47:53;;;;;;;5.32;3.08;;;;;;;;;;5005063;28;20204;-64
2022/07/02 01:50:18;;;;;;;6.32;3.40;;;;;;;;;;5004582;28;20223;-64
2022/07/02 01:52:43;;;;;;;7.70;3.45;;;;;;;;;;5005574;28;20208;-63
2022/07/02 01:55:09;;;;;;;6.00;3.30;;;;;;;;;;5005596;28;20216;-63
2022/07/02 01:57:35;;;;;;;6.20;4.18;;;;;;;;;;5005314;28;20220;-63
2022/07/02 02:00:04;;;;;;;8.60;3.45;;;;;;;;;;5004505;28;21070;-63
2022/07/02 02:02:30;;;;;;;6.40;3.63;;;;;;;;;;4997594;28;20232;-63
2022/07/02 02:04:55;;;;;;;6.55;3.67;;;;;;;;;;4997263;28;20220;-64
2022/07/02 02:07:20;;;;;;;9.25;3.88;;;;;;;;;;4997710;28;20303;-63
2022/07/02 02:09:46;;;;;;;6.13;3.70;;;;;;;;;;5017466;28;20544;-64
2022/07/02 02:12:11;;;;;;;5.47;3.53;;;;;;;;;;5014072;28;20219;-63
2022/07/02 02:14:36;;;;;;;6.05;3.60;;;;;;;;;;5024678;28;20204;-63
2022/07/02 02:17:01;;;;;;;5.78;3.35;;;;;;;;;;5022999;28;20319;-63
2022/07/02 02:19:27;;;;;;;8.75;4.50;;;;;;;;;;5012348;28;20232;-63
2022/07/02 02:21:52;;;;;;;6.85;3.50;;;;;;;;;;5005222;28;20228;-64
2022/07/02 02:24:17;;;;;;;10.63;3.90;;;;;;;;;;4999627;28;20254;-63
2022/07/02 02:26:43;;;;;;;8.57;3.88;;;;;;;;;;4997285;28;20225;-63
2022/07/02 02:29:08;;;;;;;5.60;3.50;;;;;;;;;;4997285;28;20217;-63
2022/07/02 02:31:33;;;;;;;6.45;3.70;;;;;;;;;;5001237;28;20741;-63
2022/07/02 02:33:59;;;;;;;7.72;3.85;;;;;;;;;;5004357;28;20633;-63
2022/07/02 02:36:24;;;;;;;7.53;3.50;;;;;;;;;;5014840;28;20208;-63
2022/07/02 02:38:49;;;;;;;7.93;3.30;;;;;;;;;;5024111;28;20211;-64
2022/07/02 02:41:15;;;;;;;7.18;3.75;;;;;;;;;;5021799;28;20687;-63
2022/07/02 02:43:40;;;;;;;6.15;3.50;;;;;;;;;;5002319;28;20755;-64
2022/07/02 02:46:06;;;;;;;9.32;3.70;;;;;;;;;;5000234;28;20228;-64
2022/07/02 02:48:31;;;;;;;8.35;3.65;;;;;;;;;;4998941;28;20215;-64
2022/07/02 02:50:56;;;;;;;6.50;3.45;;;;;;;;;;4995764;28;20784;-63
2022/07/02 02:53:22;;;;;;;8.82;3.95;;;;;;;;;;5003150;28;20205;-64
2022/07/02 02:55:47;;;;;;;6.63;4.10;;;;;;;;;;4998438;28;20675;-64
2022/07/02 02:58:12;;;;;;;6.32;3.70;;;;;;;;;;5010638;28;20220;-64
2022/07/02 03:00:38;;;;;;;8.82;3.90;;;;;;;;;;5012578;28;20270;-63
2022/07/02 03:03:03;;;;;;;5.35;3.33;;;;;;;;;;5003039;28;20247;-64
2022/07/02 03:05:28;;;;;;;7.43;4.00;;;;;;;;;;5003936;28;20228;-64
2022/07/02 03:07:54;;;;;;;5.35;3.33;;;;;;;;;;5022790;28;20246;-64
2022/07/02 03:10:19;;;;;;;6.95;3.70;;;;;;;;;;4999364;28;20212;-64
2022/07/02 03:12:44;;;;;;;8.30;4.03;;;;;;;;;;5009223;28;20239;-64
2022/07/02 03:15:10;;;;;;;7.60;4.18;;;;;;;;;;5015575;28;20235;-64
2022/07/02 03:17:35;;;;;;;5.80;3.92;;;;;;;;;;5014552;28;20540;-64
2022/07/02 03:20:00;;;;;;;6.93;3.70;;;;;;;;;;5003119;28;20248;-64
2022/07/02 03:22:26;;;;;;;7.20;3.85;;;;;;;;;;5003689;28;20220;-64
2022/07/02 03:24:51;;;;;;;6.60;4.18;;;;;;;;;;5003778;28;20224;-64
2022/07/02 03:27:16;;;;;;;8.48;3.85;;;;;;;;;;5019042;28;20227;-64
2022/07/02 03:29:42;;;;;;;8.43;4.30;;;;;;;;;;5012070;28;20213;-64
2022/07/02 03:32:07;;;;;;;7.80;4.43;;;;;;;;;;5004417;28;20216;-64
2022/07/02 03:34:32;;;;;;;6.63;3.90;;;;;;;;;;4995561;28;20216;-64
2022/07/02 03:36:58;;;;;;;5.75;3.60;;;;;;;;;;5015075;28;20200;-64
2022/07/02 03:39:23;;;;;;;7.07;4.10;;;;;;;;;;5010717;28;20295;-64
2022/07/02 03:41:48;;;;;;;7.90;4.53;;;;;;;;;;5003459;28;20573;-64
2022/07/02 03:44:13;;;;;;;7.75;4.25;;;;;;;;;;5006339;28;20232;-64
2022/07/02 03:46:39;;;;;;;7.32;4.13;;;;;;;;;;5004063;28;20315;-64
2022/07/02 03:49:04;;;;;;;8.55;4.43;;;;;;;;;;5020892;28;20216;-63
2022/07/02 03:51:29;;;;;;;6.63;4.63;;;;;;;;;;5022471;28;20216;-63
2022/07/02 03:53:55;;;;;;;7.85;3.90;;;;;;;;;;5002752;28;20303;-63
2022/07/02 03:56:20;;;;;;;9.10;4.20;;;;;;;;;;4984749;28;20692;-63
2022/07/02 03:58:45;;;;;;;7.45;4.18;;;;;;;;;;4994823;28;20222;-64
2022/07/02 04:01:11;;;;;;;9.32;4.72;;;;;;;;;;4996405;28;20227;-64
2022/07/02 04:03:36;;;;;;;7.15;4.15;;;;;;;;;;5008183;28;20211;-64
2022/07/02 04:06:01;;;;;;;7.50;4.25;;;;;;;;;;5021452;28;20721;-64
2022/07/02 04:08:27;;;;;;;6.57;4.10;;;;;;;;;;5022749;28;20216;-64
2022/07/02 04:10:52;;;;;;;8.90;4.80;;;;;;;;;;5021885;28;20702;-64
2022/07/02 04:13:17;;;;;;;7.95;4.63;;;;;;;;;;5007525;28;20223;-64
2022/07/02 04:15:43;;;;;;;10.05;4.30;;;;;;;;;;5002768;28;20299;-63
2022/07/02 04:18:08;;;;;;;6.57;4.50;;;;;;;;;;4995135;28;20239;-63
2022/07/02 04:20:33;;;;;;;7.55;4.35;;;;;;;;;;4995012;28;20283;-64
2022/07/02 04:22:58;;;;;;;5.82;3.88;;;;;;;;;;4994878;28;20875;-66
2022/07/02 04:25:24;;;;;;;5.10;3.58;;;;;;;;;;5018268;28;20248;-63
2022/07/02 04:27:49;;;;;;;9.80;4.10;;;;;;;;;;5012944;28;20235;-63
2022/07/02 04:30:14;;;;;;;8.47;4.30;;;;;;;;;;5001261;28;20506;-65
2022/07/02 04:32:40;;;;;;;6.95;4.18;;;;;;;;;;5002803;28;20224;-64
2022/07/02 04:35:05;;;;;;;7.32;3.33;;;;;;;;;;5001625;28;20636;-64
2022/07/02 04:37:30;;;;;;;9.23;4.50;;;;;;;;;;5003563;28;20231;-66
2022/07/02 04:39:56;;;;;;;7.32;4.40;;;;;;;;;;4996466;28;20204;-61
2022/07/02 04:42:21;;;;;;;9.20;4.75;;;;;;;;;;4994922;28;20295;-61
2022/07/02 04:44:47;;;;;;;8.23;4.32;;;;;;;;;;4995262;28;20683;-62
2022/07/02 04:47:12;;;;;;;7.78;4.50;;;;;;;;;;4999451;28;20428;-62
2022/07/02 04:49:37;;;;;;;9.20;4.55;;;;;;;;;;5002573;28;20580;-61
2022/07/02 04:52:03;;;;;;;6.88;4.30;;;;;;;;;;5002511;28;20262;-62
2022/07/02 04:54:28;;;;;;;8.85;4.90;;;;;;;;;;5014810;28;20221;-63
2022/07/02 04:56:53;;;;;;;5.75;4.30;;;;;;;;;;5030822;28;20222;-63
2022/07/02 04:59:19;;;;;;;9.80;4.90;;;;;;;;;;5050510;28;20259;-63
2022/07/02 05:01:44;;;;;;;7.88;4.63;;;;;;;;;;5050853;28;20260;-62
2022/07/02 05:04:10;;;;;;;9.85;5.03;;;;;;;;;;5049610;28;20219;-63
2022/07/02 05:06:35;;;;;;;8.38;5.28;;;;;;;;;;5050463;28;20227;-63
2022/07/02 05:09:00;;;;;;;8.95;5.43;;;;;;;;;;5050488;28;20215;-63
2022/07/02 05:11:26;;;;;;;8.68;4.95;;;;;;;;;;5049403;28;20290;-62
2022/07/02 05:13:51;;;;;;;8.10;4.95;;;;;;;;;;5020927;28;20295;-63
2022/07/02 05:16:16;;;;;;;9.68;5.05;;;;;;;;;;5010721;28;20216;-61
2022/07/02 05:18:42;;;;;;;9.40;5.00;;;;;;;;;;4993693;28;20208;-62
2022/07/02 05:21:07;;;;;;;9.55;4.80;;;;;;;;;;5010068;28;20634;-61
2022/07/02 05:23:32;;;;;;;9.68;4.93;;;;;;;;;;5011564;28;20220;-63
2022/07/02 05:25:58;;;;;;;7.47;4.55;;;;;;;;;;5011689;28;20282;-64
2022/07/02 05:28:23;;;;;;;7.68;4.90;;;;;;;;;;5010461;28;20569;-62
2022/07/02 05:30:49;;;;;;;8.70;5.07;;;;;;;;;;5027998;28;20298;-62
2022/07/02 05:33:14;;;;;;;8.38;4.80;;;;;;;;;;5049785;28;20672;-63
2022/07/02 05:35:39;;;;;;;9.00;5.70;;;;;;;;;;5050635;28;20666;-62
2022/07/02 05:38:04;;;;;;;8.27;4.20;;;;;;;;;;5050554;28;20244;-63
2022/07/02 05:40:30;;;;;;;8.70;4.60;;;;;;;;;;5050626;28;20217;-62
2022/07/02 05:42:55;;;;;;;8.70;3.50;;;;;;;;;;5051161;28;20618;-63
2022/07/02 05:45:20;;;;;;;10.43;3.80;;;;;;;;;;5043280;28;20612;-63
2022/07/02 05:47:46;;;;;;;7.00;3.88;;;;;;;;;;5049843;28;20214;-63
2022/07/02 05:50:11;;;;;;;7.00;3.22;;;;;;;;;;5050131;28;20207;-62
2022/07/02 05:52:36;;;;;;;8.60;3.95;;;;;;;;;;5050731;28;20207;-62
2022/07/02 05:55:02;;;;;;;9.25;3.33;;;;;;;;;;5049686;28;20222;-62
2022/07/02 05:57:27;;;;;;;6.65;3.55;;;;;;;;;;5050768;28;20222;-63
2022/07/02 05:59:52;;;;;;;6.05;3.63;;;;;;;;;;5050602;28;20238;-63
2022/07/02 06:02:18;;;;;;;6.57;3.20;;;;;;;;;;5048895;28;20742;-63
2022/07/02 06:04:43;;;;;;;8.55;3.30;;;;;;;;;;5049854;28;20638;-63
2022/07/02 06:09:52;;;;;;;6.20;2.88;;;;;;;;;;5050346;28;20217;-63
2022/07/02 06:12:18;;;;;;;7.10;2.80;;;;;;;;;;5050005;28;20223;-63
2022/07/02 06:14:43;;;;;;;6.15;3.15;;;;;;;;;;5050685;28;20242;-63
2022/07/02 06:17:09;;;;;;;6.13;2.70;;;;;;;;;;5049007;28;20260;-63
2022/07/02 06:19:34;;;;;;;6.72;2.65;;;;;;;;;;5050278;28;20337;-63
2022/07/02 06:22:00;;;;;;;6.88;2.78;;;;;;;;;;5052756;28;20298;-63
2022/07/02 06:24:25;;;;;;;5.80;2.17;;;;;;;;;;5053243;28;20650;-63
2022/07/02 06:26:50;;;;;;;4.40;2.03;;;;;;;;;;5054462;28;20233;-63
2022/07/02 06:29:16;;;;;;;4.80;2.75;;;;;;;;;;5053747;28;20222;-63
2022/07/02 06:31:41;;;;;;;4.57;1.77;;;;;;;;;;5053366;28;20218;-63
2022/07/02 06:34:06;;;;;;;3.55;1.50;;;;;;;;;;5053113;28;20203;-63
2022/07/02 06:36:31;;;;;;;5.55;2.03;;;;;;;;;;5053458;28;20293;-63
2022/07/02 06:38:57;;;;;;;5.70;1.88;;;;;;;;;;5054169;28;20207;-63
2022/07/02 06:44:06;;;;;;;4.65;1.25;;;;;;;;;;5052123;28;20211;-63
2022/07/02 06:46:31;;;;;;;4.22;1.13;;;;;;;;;;5041939;28;20585;-63
2022/07/02 06:48:57;;;;;;;3.55;1.35;;;;;;;;;;5033386;28;20682;-63
2022/07/02 06:51:22;;;;;;;3.58;1.02;;;;;;;;;;5033118;28;20266;-63
2022/07/02 06:53:47;;;;;;;6.47;1.40;;;;;;;;;;5033883;28;20235;-63
2022/07/02 06:56:13;;;;;;;5.70;1.15;;;;;;;;;;5033545;28;20242;-63
2022/07/02 06:58:38;;;;;;;2.17;0.60;;;;;;;;;;5033218;28;20206;-63
2022/07/02 07:01:03;;;;;;;3.85;0.60;;;;;;;;;;5032980;28;20273;-63
2022/07/02 07:03:28;;;;;;;2.75;0.70;;;;;;;;;;5033206;28;20234;-64
2022/07/02 07:05:54;;;;;;;6.45;0.80;;;;;;;;;;5015081;28;20812;-63
2022/07/02 07:08:19;;;;;;;3.15;0.75;;;;;;;;;;5031919;28;20222;-63
2022/07/02 07:10:45;;;;;;;1.55;0.80;;;;;;;;;;5027445;28;20213;-63
2022/07/02 07:13:10;;;;;;;3.60;0.95;;;;;;;;;;5014071;28;20216;-63
2022/07/02 07:15:35;;;;;;;3.33;0.70;;;;;;;;;;5013298;28;20292;-63
2022/07/02 07:18:00;;;;;;;3.58;0.70;;;;;;;;;;5012996;28;20252;-64
2022/07/02 07:20:29;;;;;;;1.92;0.60;;;;;;;;;;5012674;28;20232;-64
2022/07/02 07:22:54;;;;;;;4.18;0.80;;;;;;;;;;5013783;28;20746;-63
2022/07/02 07:25:20;;;;;;;3.78;0.70;;;;;;;;;;5013013;28;20367;-64
2022/07/02 07:27:45;;;;;;;3.00;0.68;;;;;;;;;;5012995;28;20227;-63
2022/07/02 07:30:10;;;;;;;3.47;0.73;;;;;;;;;;5031318;28;20253;-63
2022/07/02 07:32:36;;;;;;;1.98;0.70;;;;;;;;;;5032414;28;20208;-63
2022/07/02 07:35:01;;;;;;;4.50;1.15;;;;;;;;;;5031622;28;20220;-64
2022/07/02 07:37:26;;;;;;;1.42;0.60;;;;;;;;;;5033192;28;20266;-63
2022/07/02 07:39:52;;;;;;;5.03;0.90;;;;;;;;;;5032523;28;20218;-65
2022/07/02 07:42:17;;;;;;;2.83;0.80;;;;;;;;;;5032659;28;20212;-61
2022/07/02 07:44:42;;;;;;;4.15;0.98;;;;;;;;;;5011844;28;20543;-63
2022/07/02 07:47:08;;;;;;;4.05;1.00;;;;;;;;;;5025781;28;20238;-63
2022/07/02 07:49:33;;;;;;;3.83;0.90;;;;;;;;;;5032372;28;20266;-63
2022/07/02 07:51:58;;;;;;;4.82;0.80;;;;;;;;;;5032900;28;20208;-63
2022/07/02 07:54:24;;;;;;;2.05;0.80;;;;;;;;;;5031801;28;20612;-63
2022/07/02 07:56:49;;;;;;;3.92;0.80;;;;;;;;;;5015127;28;20214;-63
2022/07/02 07:59:15;;;;;;;4.20;1.00;;;;;;;;;;5031763;28;20273;-62
2022/07/02 08:01:40;;;;;;;5.63;1.45;;;;;;;;;;5031986;28;20272;-63
2022/07/02 08:04:05;;;;;;;4.28;0.90;;;;;;;;;;5031691;28;20216;-63
2022/07/02 08:06:30;;;;;;;2.88;0.75;;;;;;;;;;5032326;28;20687;-63
2022/07/02 08:08:57;;;;;;;6.10;1.00;;;;;;;;;;5032027;28;20737;-63
2022/07/02 08:11:22;;;;;;;2.47;0.70;;;;;;;;;;5032004;28;20207;-63
2022/07/02 08:13:47;;;;;;;3.38;0.70;;;;;;;;;;5032497;28;20215;-63
2022/07/02 08:16:13;;;;;;;2.42;0.60;;;;;;;;;;5031190;28;20270;-62
2022/07/02 08:18:38;;;;;;;3.47;0.50;;;;;;;;;;5031876;28;20315;-63
2022/07/02 08:21:03;;;;;;;1.95;0.63;;;;;;;;;;5031526;28;20204;-63
2022/07/02 08:23:29;;;;;;;2.45;0.50;;;;;;;;;;5031886;28;20215;-62
2022/07/02 08:25:54;;;;;;;5.80;0.80;;;;;;;;;;5031787;28;20228;-62
2022/07/02 08:28:20;;;;;;;3.95;0.63;;;;;;;;;;5031991;28;20354;-62
2022/07/02 08:30:45;;;;;;;2.40;0.60;;;;;;;;;;5031102;28;20700;-62
2022/07/02 08:33:12;;;;;;;4.20;0.60;;;;;;;;;;5031470;28;20216;-62
2022/07/02 08:35:38;;;;;;;5.00;0.68;;;;;;;;;;5031820;28;20216;-63
2022/07/02 08:38:03;;;;;;;5.25;0.88;;;;;;;;;;5031013;28;20303;-63
2022/07/02 08:40:29;;;;;;;4.63;0.68;;;;;;;;;;5031833;28;20211;-63
2022/07/02 08:42:54;;;;;;;1.70;0.60;;;;;;;;;;5032026;28;20207;-62
2022/07/02 08:45:21;;;;;;;4.00;0.70;;;;;;;;;;5012776;28;20594;-63
2022/07/02 08:47:46;;;;;;;2.80;0.60;;;;;;;;;;5031612;28;20251;-62
2022/07/02 08:50:11;;;;;;;2.15;0.70;;;;;;;;;;5030469;28;20232;-62
2022/07/02 08:52:38;;;;;;;4.03;0.85;;;;;;;;;;5014158;28;20282;-63
2022/07/02 08:55:03;;;;;;;3.20;0.75;;;;;;;;;;5031324;28;20216;-63
2022/07/02 08:57:28;;;;;;;2.75;0.65;;;;;;;;;;5031316;28;20215;-63
2022/07/02 08:59:54;;;;;;;4.18;0.70;;;;;;;;;;5010178;28;20225;-63
2022/07/02 09:02:19;;;;;;;2.45;0.60;;;;;;;;;;5011545;28;20216;-63
2022/07/02 09:04:45;;;;;;;3.28;0.80;;;;;;;;;;5011129;28;20675;-63
2022/07/02 09:07:11;;;;;;;3.83;0.70;;;;;;;;;;5011200;28;20699;-62
2022/07/02 09:09:37;;;;;;;5.22;0.70;;;;;;;;;;5011954;28;20205;-63
2022/07/02 09:12:03;;;;;;;3.17;0.73;;;;;;;;;;5009680;28;20220;-63
2022/07/02 09:14:28;;;;;;;5.35;0.90;;;;;;;;;;5011579;28;20215;-63
2022/07/02 09:16:54;;;;;;;4.35;0.82;;;;;;;;;;5010190;28;20587;-63
2022/07/02 09:19:20;;;;;;;2.33;0.63;;;;;;;;;;5010658;28;20231;-62
2022/07/02 09:21:49;;;;;;;3.22;0.68;;;;;;;;;;5011265;28;20200;-62
2022/07/02 09:24:15;;;;;;;3.08;0.80;;;;;;;;;;5011396;28;20244;-62
2022/07/02 09:26:40;;;;;;;2.00;0.70;;;;;;;;;;5009792;28;20252;-62
2022/07/02 09:29:06;;;;;;;3.05;0.73;;;;;;;;;;5009815;28;20254;-61
2022/07/02 09:31:31;;;;;;;2.53;0.80;;;;;;;;;;5011437;28;20236;-62
2022/07/02 09:33:56;;;;;;;5.75;1.00;;;;;;;;;;5010727;28;20219;-62
2022/07/02 09:36:23;;;;;;;2.33;0.88;;;;;;;;;;5010914;28;20212;-63
2022/07/02 09:38:49;;;;;;;2.55;0.57;;;;;;;;;;5011590;28;20215;-63
2022/07/02 09:41:15;;;;;;;3.33;0.60;;;;;;;;;;5010432;28;20212;-63
2022/07/02 09:43:40;;;;;;;5.25;0.98;;;;;;;;;;5011532;28;20208;-63
2022/07/02 09:46:15;;;;;;;4.03;0.90;;;;;;;;;;5010879;28;20228;-63
2022/07/02 09:48:41;;;;;;;2.92;0.55;;;;;;;;;;5009305;28;20223;-62
2022/07/02 09:51:06;;;;;;;3.30;0.93;;;;;;;;;;5010953;28;20750;-62
2022/07/02 09:53:32;;;;;;;2.88;0.73;;;;;;;;;;5010847;28;20300;-62
2022/07/02 09:55:57;;;;;;;5.43;0.80;;;;;;;;;;5012109;28;20236;-62
2022/07/02 09:58:23;;;;;;;4.10;0.80;;;;;;;;;;5014792;28;20563;-62
2022/07/02 10:00:49;;;;;;;9.38;1.23;;;;;;;;;;5033292;28;20219;-62
2022/07/02 10:03:14;;;;;;;6.72;0.90;;;;;;;;;;5034133;28;20573;-62
2022/07/02 10:05:39;;;;;;;5.28;1.67;;;;;;;;;;5034662;28;20220;-61
2022/07/02 10:08:05;;;;;;;1.83;0.52;;;;;;;;;;5033892;28;20269;-62
2022/07/02 10:10:39;;;;;;;3.78;1.20;;;;;;;;;;5035042;28;20220;-62
2022/07/02 10:13:05;;;;;;;5.20;1.15;;;;;;;;;;5034014;28;20211;-62
2022/07/02 10:15:31;;;;;;;5.07;0.85;;;;;;;;;;5034192;28;20227;-61
2022/07/02 10:17:57;;;;;;;4.55;0.90;;;;;;;;;;5027730;28;20204;-62
2022/07/02 10:20:23;;;;;;;2.97;0.77;;;;;;;;;;5022912;28;20213;-62
2022/07/02 10:22:48;;;;;;;3.63;0.63;;;;;;;;;;5020717;28;20227;-62
2022/07/02 10:25:14;;;;;;;2.75;0.70;;;;;;;;;;5025270;28;20705;-62
2022/07/02 10:27:39;;;;;;;2.80;0.70;;;;;;;;;;5015650;28;20212;-61
2022/07/02 10:30:05;;;;;;;4.68;0.88;;;;;;;;;;5032486;28;20200;-62
2022/07/02 10:32:43;;;;;;;3.58;1.00;;;;;;;;;;5015663;28;20261;-62
2022/07/02 10:35:10;;;;;;;2.97;0.85;;;;;;;;;;5016334;28;20217;-62
2022/07/02 10:37:37;;;;;;;3.80;0.80;;;;;;;;;;5033596;28;20247;-61
2022/07/02 10:40:02;;;;;;;2.28;0.85;;;;;;;;;;5033943;28;20254;-62
2022/07/02 10:42:37;;;;;;;4.57;0.85;;;;;;;;;;5046012;28;20671;-62
2022/07/02 10:45:09;;;;;;;5.47;0.90;;;;;;;;;;5034641;28;20252;-62
2022/07/02 10:47:35;;;;;;;3.60;0.80;;;;;;;;;;5042335;28;20219;-62
2022/07/02 10:50:00;;;;;;;3.65;0.88;;;;;;;;;;5033746;28;20321;-61
2022/07/02 10:52:39;;;;;;;3.33;0.68;;;;;;;;;;5016044;28;20218;-61
2022/07/02 10:55:05;;;;;;;3.60;0.90;;;;;;;;;;5033321;28;20587;-62
2022/07/02 10:57:30;;;;;;;5.25;0.88;;;;;;;;;;5033158;28;20209;-62
2022/07/02 10:59:55;;;;;;;5.35;0.82;;;;;;;;;;5033036;28;20314;-62
2022/07/02 11:02:21;;;;;;;4.68;0.80;;;;;;;;;;5033514;28;20290;-62
2022/07/02 11:04:48;;;;;;;3.17;1.00;;;;;;;;;;5033300;28;20207;-61
2022/07/02 11:07:13;;;;;;;2.58;0.70;;;;;;;;;;5014676;28;20236;-61
2022/07/02 11:09:46;;;;;;;4.72;1.23;;;;;;;;;;5033099;28;20698;-61
2022/07/02 11:12:11;;;;;;;5.05;0.80;;;;;;;;;;5032276;28;20211;-61
2022/07/02 11:14:36;;;;;;;3.72;0.75;;;;;;;;;;5015689;28;20203;-61
2022/07/02 11:17:01;;;;;;;4.45;0.73;;;;;;;;;;5033328;28;20219;-62
2022/07/02 11:19:28;;;;;;;2.92;0.73;;;;;;;;;;5032839;28;20287;-61
2022/07/02 11:21:54;;;;;;;1.73;0.52;;;;;;;;;;5033622;28;20231;-61
2022/07/02 11:24:20;;;;;;;4.05;0.80;;;;;;;;;;5032543;28;20211;-62
2022/07/02 11:26:45;;;;;;;3.78;0.60;;;;;;;;;;5032331;28;20303;-61
2022/07/02 11:29:11;;;;;;;3.20;0.60;;;;;;;;;;5032724;28;20648;-61
2022/07/02 11:31:37;;;;;;;2.75;0.70;;;;;;;;;;5033330;28;20754;-61
2022/07/02 11:34:02;;;;;;;4.38;0.85;;;;;;;;;;5032270;28;20210;-62
2022/07/02 11:36:27;;;;;;;3.65;0.90;;;;;;;;;;5033272;28;20211;-61
2022/07/02 11:38:53;;;;;;;3.15;0.80;;;;;;;;;;5032859;28;20593;-61
2022/07/02 11:41:19;;;;;;;2.97;0.70;;;;;;;;;;5031846;28;20618;-61
2022/07/02 11:43:44;;;;;;;2.45;0.70;;;;;;;;;;5032710;28;20231;-61
2022/07/02 11:46:10;;;;;;;6.05;0.70;;;;;;;;;;5032115;28;20266;-62
2022/07/02 11:48:36;;;;;;;2.90;0.80;;;;;;;;;;5032905;28;20207;-61
2022/07/02 11:51:01;;;;;;;2.05;0.60;;;;;;;;;;5032417;28;20281;-62
2022/07/02 11:53:26;;;;;;;2.13;0.70;;;;;;;;;;5032308;28;20207;-61
2022/07/02 11:55:52;;;;;;;4.15;0.60;;;;;;;;;;5032306;28;20212;-61
2022/07/02 11:58:17;;;;;;;2.92;0.70;;;;;;;;;;5014288;28;20216;-61
2022/07/02 12:00:42;;;;;;;7.55;0.77;;;;;;;;;;5031958;28;20297;-61
2022/07/02 12:03:08;;;;;;;1.92;0.65;;;;;;;;;;5032252;28;20223;-61
2022/07/02 12:05:33;;;;;;;3.60;0.65;;;;;;;;;;5032308;28;20211;-61
2022/07/02 12:07:59;;;;;;;4.97;0.77;;;;;;;;;;5031933;28;20215;-61
2022/07/02 12:10:24;;;;;;;1.67;0.50;;;;;;;;;;5013842;28;20561;-61
2022/07/02 12:12:49;;;;;;;2.75;0.70;;;;;;;;;;5032240;28;20208;-61
2022/07/02 12:15:15;;;;;;;2.30;0.55;;;;;;;;;;5031092;28;20701;-62
2022/07/02 12:17:47;;;;;;;2.42;0.52;;;;;;;;;;5014892;28;20211;-61
2022/07/02 12:20:12;;;;;;;2.17;0.70;;;;;;;;;;5031631;28;20577;-61
2022/07/02 12:22:38;;;;;;;2.92;0.90;;;;;;;;;;5031483;28;20207;-61
2022/07/02 12:25:05;;;;;;;4.10;0.80;;;;;;;;;;5031395;28;20689;-62
2022/07/02 12:27:34;;;;;;;1.65;0.75;;;;;;;;;;5014405;28;20635;-62
2022/07/02 12:30:04;;;;;;;4.03;0.90;;;;;;;;;;5031324;28;20200;-61
2022/07/02 12:32:32;;;;;;;4.57;0.90;;;;;;;;;;5008599;28;20216;-62
2022/07/02 12:34:59;;;;;;;3.70;0.85;;;;;;;;;;5000636;28;20781;-61
2022/07/02 12:37:25;;;;;;;2.85;0.50;;;;;;;;;;4998900;28;20208;-61
2022/07/02 12:39:57;;;;;;;3.03;0.88;;;;;;;;;;4999751;28;20227;-61
2022/07/02 12:42:23;;;;;;;2.33;0.60;;;;;;;;;;5018229;28;20718;-61
2022/07/02 12:44:58;;;;;;;4.53;0.57;;;;;;;;;;5012677;28;20763;-61
2022/07/02 12:47:24;;;;;;;2.00;0.57;;;;;;;;;;5005895;28;20239;-61
2022/07/02 12:49:51;;;;;;;4.32;1.08;;;;;;;;;;5009733;28;20305;-61
2022/07/02 12:52:17;;;;;;;2.58;0.60;;;;;;;;;;5024866;28;21043;-61
2022/07/02 12:54:42;;;;;;;2.40;0.50;;;;;;;;;;5007483;28;20204;-61
2022/07/02 12:57:11;;;;;;;1.60;0.52;;;;;;;;;;5017230;28;20226;-62
2022/07/02 12:59:36;;;;;;;2.15;0.50;;;;;;;;;;5017399;28;20232;-61
2022/07/02 13:02:02;;;;;;;2.22;0.77;;;;;;;;;;5017598;28;20219;-62
2022/07/02 13:04:27;;;;;;;1.83;0.57;;;;;;;;;;5023256;28;20307;-61
2022/07/02 13:06:52;;;;;;;4.63;0.90;;;;;;;;;;5010142;28;20691;-61
2022/07/02 13:09:18;;;;;;;4.60;1.00;;;;;;;;;;5024546;28;20281;-61
2022/07/02 13:11:43;;;;;;;2.80;0.60;;;;;;;;;;5024040;28;21043;-61
2022/07/02 13:14:08;;;;;;;2.17;0.50;;;;;;;;;;5018198;28;20311;-62
2022/07/02 13:16:35;;;;;;;2.38;0.80;;;;;;;;;;5005500;28;20216;-63
2022/07/02 13:19:01;;;;;;;2.08;0.70;;;;;;;;;;5000547;28;20247;-63
2022/07/02 13:21:26;;;;;;;2.90;0.60;;;;;;;;;;4997682;28;20991;-63
2022/07/02 13:23:51;;;;;;;2.17;0.65;;;;;;;;;;4999316;28;20833;-64
2022/07/02 13:26:17;;;;;;;2.78;0.70;;;;;;;;;;5002357;28;20239;-63
2022/07/02 13:28:42;;;;;;;3.22;0.90;;;;;;;;;;5024961;28;20261;-63
2022/07/02 13:31:07;;;;;;;2.83;0.70;;;;;;;;;;5011691;28;20288;-64
2022/07/02 13:33:32;;;;;;;1.63;0.60;;;;;;;;;;5007829;28;20816;-64
2022/07/02 13:35:58;;;;;;;3.05;0.60;;;;;;;;;;5007844;28;20212;-62
2022/07/02 13:38:23;;;;;;;2.15;0.60;;;;;;;;;;5005659;28;20268;-63
2022/07/02 13:40:48;;;;;;;2.40;0.60;;;;;;;;;;5003460;28;20312;-63
2022/07/02 13:43:14;;;;;;;4.18;0.80;;;;;;;;;;4997355;28;20524;-64
2022/07/02 13:45:39;;;;;;;4.50;0.90;;;;;;;;;;4997694;28;20215;-63
2022/07/02 13:48:04;;;;;;;2.75;0.85;;;;;;;;;;4999525;28;20286;-64
2022/07/02 13:50:30;;;;;;;2.63;0.60;;;;;;;;;;5006258;28;20262;-63
2022/07/02 13:52:55;;;;;;;3.58;0.60;;;;;;;;;;4999594;28;20228;-63
2022/07/02 13:55:20;;;;;;;3.00;0.60;;;;;;;;;;5015686;28;20231;-63
2022/07/02 13:57:46;;;;;;;6.68;0.68;;;;;;;;;;5025366;28;20546;-63
2022/07/02 14:00:11;;;;;;;2.47;0.68;;;;;;;;;;5024517;28;20706;-63
2022/07/02 14:02:37;;;;;;;7.55;0.75;;;;;;;;;;5025088;28;20659;-63
2022/07/02 14:05:02;;;;;;;1.23;0.57;;;;;;;;;;5018163;28;20250;-63
2022/07/02 14:07:27;;;;;;;2.97;0.80;;;;;;;;;;5017009;28;20738;-63
2022/07/02 14:09:52;;;;;;;1.95;0.60;;;;;;;;;;5017205;28;20231;-63
2022/07/02 14:12:18;;;;;;;1.35;0.60;;;;;;;;;;5024035;28;20240;-63
2022/07/02 14:14:43;;;;;;;3.22;0.60;;;;;;;;;;5024726;28;20285;-63
2022/07/02 14:17:08;;;;;;;2.75;0.70;;;;;;;;;;5024855;28;20265;-62
2022/07/02 14:19:35;;;;;;;1.42;0.50;;;;;;;;;;5024831;28;20222;-63
2022/07/02 14:22:01;;;;;;;3.13;0.70;;;;;;;;;;5023782;28;20207;-63
2022/07/02 14:24:26;;;;;;;2.97;0.60;;;;;;;;;;5024983;28;20227;-63
2022/07/02 14:26:52;;;;;;;2.53;0.50;;;;;;;;;;5020599;28;20220;-63
2022/07/02 14:29:17;;;;;;;3.33;1.02;;;;;;;;;;5035520;28;20230;-63
2022/07/02 14:31:46;;;;;;;3.78;0.60;;;;;;;;;;5019258;28;20876;-63
2022/07/02 14:34:12;;;;;;;4.20;0.70;;;;;;;;;;5040766;28;20254;-63
2022/07/02 14:36:38;;;;;;;3.17;0.80;;;;;;;;;;5043373;28;20243;-63
2022/07/02 14:39:03;;;;;;;4.15;0.70;;;;;;;;;;5043730;28;20632;-63
2022/07/02 14:41:32;;;;;;;4.07;0.60;;;;;;;;;;5035940;28;20762;-63